Time;durP1;ratioP1;P1;durP2;ratioP2;P2;SDS_P1;SDS_P2;PMS_P1;PMS_P2;Temp;Humidity;BMP_temperature;BMP_pressure;BME280_temperature;BME280_humidity;BME280_pressure;Samples;Min_cycle;Max_cycle;Signal;HPM_P1;HPM_P2
2023/08/14 00:01:01;;;;;;;4.63;2.20;;;16.20;99.90;;;;;;4949984;28;20245;-53
2023/08/14 00:03:27;;;;;;;7.40;2.67;;;16.20;99.90;;;;;;4945362;29;20246;-54
2023/08/14 00:05:54;;;;;;;4.77;2.73;;;16.20;99.90;;;;;;4948391;28;20211;-53
2023/08/14 00:08:21;;;;;;;2.70;2.43;;;16.30;99.90;;;;;;4931675;28;20226;-54
2023/08/14 00:10:49;;;;;;;3.90;2.27;;;16.30;99.90;;;;;;4946971;28;20195;-55
2023/08/14 00:13:21;;;;;;;6.33;2.83;;;16.20;99.90;;;;;;4948155;28;20266;-55
2023/08/14 00:15:48;;;;;;;2.80;2.50;;;16.10;99.90;;;;;;4923365;28;20869;-55
2023/08/14 00:18:15;;;;;;;3.63;2.20;;;16.10;99.90;;;;;;4943515;28;20209;-54
2023/08/14 00:20:41;;;;;;;3.70;2.67;;;16.20;99.90;;;;;;4949410;28;20191;-56
2023/08/14 00:23:08;;;;;;;3.43;2.30;;;16.20;99.90;;;;;;4934376;28;20203;-56
2023/08/14 00:25:35;;;;;;;3.87;2.40;;;16.20;99.90;;;;;;4944724;28;20230;-55
2023/08/14 00:28:04;;;;;;;5.83;2.50;;;16.20;99.90;;;;;;4949232;28;20226;-55
2023/08/14 00:30:30;;;;;;;3.23;2.60;;;16.10;99.90;;;;;;4921733;28;20211;-55
2023/08/14 00:32:57;;;;;;;3.00;2.70;;;16.10;99.90;;;;;;4938856;28;20230;-51
2023/08/14 00:35:24;;;;;;;6.10;2.80;;;16.00;99.90;;;;;;4941719;28;20222;-54
2023/08/14 00:37:51;;;;;;;3.07;2.80;;;16.00;99.90;;;;;;4930771;28;20289;-55
2023/08/14 00:40:18;;;;;;;6.50;2.87;;;16.10;99.90;;;;;;4932580;28;20206;-55
2023/08/14 00:42:47;;;;;;;4.63;2.40;;;16.10;99.90;;;;;;4948546;28;20195;-53
2023/08/14 00:45:15;;;;;;;3.63;2.63;;;16.10;99.90;;;;;;4927355;28;20231;-54
2023/08/14 00:47:45;;;;;;;3.07;2.77;;;16.10;99.90;;;;;;4939165;28;20202;-54
2023/08/14 00:50:12;;;;;;;3.10;2.63;;;16.10;99.90;;;;;;4945722;28;20304;-54
2023/08/14 00:52:42;;;;;;;3.40;2.33;;;16.00;99.90;;;;;;4932337;28;20215;-50
2023/08/14 00:55:13;;;;;;;3.00;2.43;;;16.10;99.90;;;;;;4947514;28;20694;-55
2023/08/14 00:57:40;;;;;;;5.47;2.70;;;16.00;99.90;;;;;;4942616;28;20370;-55
2023/08/14 01:00:08;;;;;;;5.33;2.77;;;16.00;99.90;;;;;;4948954;28;20253;-53
2023/08/14 01:02:37;;;;;;;4.97;2.43;;;16.00;99.90;;;;;;4908978;29;20211;-49
2023/08/14 01:05:04;;;;;;;2.40;2.20;;;16.00;99.90;;;;;;4931762;28;20793;-52
2023/08/14 01:07:31;;;;;;;2.60;2.40;;;16.10;99.90;;;;;;4931643;28;20206;-53
2023/08/14 01:09:59;;;;;;;3.90;2.70;;;16.00;99.90;;;;;;4952037;28;20699;-54
2023/08/14 01:12:38;;;;;;;5.43;2.40;;;16.00;99.90;;;;;;4943006;28;20202;-54
2023/08/14 01:15:10;;;;;;;3.40;3.00;;;16.00;99.90;;;;;;4935352;29;20317;-56
2023/08/14 01:17:40;;;;;;;4.73;2.43;;;15.90;99.90;;;;;;4912069;28;20203;-49
2023/08/14 01:20:08;;;;;;;7.03;2.17;;;15.90;99.90;;;;;;4942306;28;20248;-55
2023/08/14 01:22:45;;;;;;;4.40;2.30;;;15.90;99.90;;;;;;4946611;28;20195;-55
2023/08/14 01:25:38;;;;;;;4.50;2.43;;;15.80;99.90;;;;;;4934515;28;20702;-53
2023/08/14 01:28:06;;;;;;;2.53;2.30;;;15.80;99.90;;;;;;4933233;28;20222;-54
2023/08/14 01:30:34;;;;;;;4.37;2.20;;;15.80;99.90;;;;;;4948240;28;20197;-55
2023/08/14 01:33:01;;;;;;;3.27;2.13;;;15.80;99.90;;;;;;4931791;28;20222;-54
2023/08/14 01:35:35;;;;;;;2.73;2.50;;;15.70;99.90;;;;;;4940837;28;20214;-55
2023/08/14 01:38:10;;;;;;;6.43;2.63;;;15.70;99.90;;;;;;4931056;29;20262;-53
2023/08/14 01:40:46;;;;;;;3.20;2.70;;;15.60;99.90;;;;;;4915912;29;20254;-56
2023/08/14 01:43:19;;;;;;;2.60;2.40;;;15.60;99.90;;;;;;4948718;28;20512;-53
2023/08/14 01:45:46;;;;;;;2.77;2.37;;;15.70;99.90;;;;;;4947993;28;20223;-54
2023/08/14 01:48:15;;;;;;;5.90;2.50;;;15.60;99.90;;;;;;4911613;29;20257;-51
2023/08/14 01:50:43;;;;;;;2.87;2.50;;;15.70;99.90;;;;;;4934943;28;20213;-52
2023/08/14 01:53:11;;;;;;;2.53;2.20;;;15.60;99.90;;;;;;4950708;28;20205;-51
2023/08/14 01:55:39;;;;;;;2.70;2.37;;;15.60;99.90;;;;;;4936578;28;21057;-53
2023/08/14 01:58:06;;;;;;;4.77;2.23;;;15.60;99.90;;;;;;4937214;29;20210;-51
2023/08/14 02:00:34;;;;;;;3.53;2.47;;;15.50;99.90;;;;;;4941624;28;20856;-53
2023/08/14 02:03:01;;;;;;;2.80;2.50;;;15.50;99.90;;;;;;4925662;28;20211;-52
2023/08/14 02:05:27;;;;;;;2.67;2.40;;;15.50;99.90;;;;;;4935523;28;20226;-55
2023/08/14 02:07:55;;;;;;;2.53;2.20;;;15.50;99.90;;;;;;4944121;28;20635;-54
2023/08/14 02:10:21;;;;;;;2.53;2.10;;;15.50;99.90;;;;;;4926137;28;20215;-53
2023/08/14 02:12:49;;;;;;;2.80;2.60;;;15.50;99.90;;;;;;4931758;29;20888;-56
2023/08/14 02:15:17;;;;;;;5.33;3.23;;;15.50;99.90;;;;;;4950504;28;20226;-51
2023/08/14 02:17:44;;;;;;;3.37;2.20;;;15.50;99.90;;;;;;4943417;28;20203;-53
2023/08/14 02:20:11;;;;;;;6.93;2.83;;;15.40;99.90;;;;;;4925357;28;20238;-53
2023/08/14 02:22:38;;;;;;;3.53;2.30;;;15.50;99.90;;;;;;4934092;28;20257;-53
2023/08/14 02:25:05;;;;;;;3.00;2.30;;;15.50;99.90;;;;;;4934205;28;20226;-54
2023/08/14 02:27:32;;;;;;;4.80;2.97;;;15.50;99.90;;;;;;4940344;28;20253;-52
2023/08/14 02:30:00;;;;;;;3.03;2.10;;;15.50;99.90;;;;;;4935408;29;20208;-53
2023/08/14 02:32:27;;;;;;;3.60;2.70;;;15.60;99.90;;;;;;4943295;28;20257;-53
2023/08/14 02:34:56;;;;;;;4.63;2.43;;;15.60;99.90;;;;;;4925160;28;20230;-51
2023/08/14 02:37:24;;;;;;;7.10;2.90;;;15.60;99.90;;;;;;4940661;28;20246;-53
2023/08/14 02:39:50;;;;;;;4.27;2.57;;;15.60;99.90;;;;;;4945205;28;20552;-53
2023/08/14 02:42:19;;;;;;;4.13;2.37;;;15.60;99.90;;;;;;4933082;28;20618;-54
2023/08/14 02:44:47;;;;;;;6.43;3.00;;;15.60;99.90;;;;;;4949584;28;21058;-49
2023/08/14 02:47:15;;;;;;;2.97;2.67;;;15.60;99.90;;;;;;4948574;28;20682;-53
2023/08/14 02:49:42;;;;;;;2.73;2.33;;;15.60;99.90;;;;;;4922216;28;20314;-49
2023/08/14 02:52:08;;;;;;;4.03;2.53;;;15.50;99.90;;;;;;4930040;29;20738;-54
2023/08/14 02:54:35;;;;;;;3.00;2.63;;;15.50;99.90;;;;;;4918797;29;20301;-50
2023/08/14 02:57:02;;;;;;;3.13;2.67;;;15.50;99.90;;;;;;4920719;29;20211;-54
2023/08/14 02:59:29;;;;;;;3.90;2.60;;;15.50;99.90;;;;;;4943832;28;20289;-52
2023/08/14 03:01:56;;;;;;;4.80;2.43;;;15.50;99.90;;;;;;4947783;28;20198;-56
2023/08/14 03:04:24;;;;;;;3.20;2.50;;;15.50;99.90;;;;;;4951668;28;20230;-52
2023/08/14 03:06:51;;;;;;;3.57;2.47;;;15.50;99.90;;;;;;4928651;28;20262;-54
2023/08/14 03:09:18;;;;;;;3.00;2.70;;;15.40;99.90;;;;;;4944310;28;20206;-55
2023/08/14 03:11:44;;;;;;;4.33;2.27;;;15.40;99.90;;;;;;4948079;28;20186;-49
2023/08/14 03:14:11;;;;;;;3.30;3.00;;;15.40;99.90;;;;;;4932384;28;20214;-55
2023/08/14 03:16:38;;;;;;;3.00;2.80;;;15.40;99.90;;;;;;4944077;28;20222;-49
2023/08/14 03:19:05;;;;;;;3.77;2.47;;;15.40;99.90;;;;;;4947071;28;20696;-51
2023/08/14 03:21:33;;;;;;;2.53;2.33;;;15.40;99.90;;;;;;4929840;28;21509;-56
2023/08/14 03:24:00;;;;;;;2.97;2.67;;;15.30;99.90;;;;;;4946468;28;20245;-49
2023/08/14 03:26:27;;;;;;;5.00;2.47;;;15.30;99.90;;;;;;4944077;28;20219;-55
2023/08/14 03:28:54;;;;;;;3.77;2.43;;;15.30;99.90;;;;;;4919668;29;20233;-54
2023/08/14 03:31:20;;;;;;;3.63;2.40;;;15.30;99.90;;;;;;4943979;29;20195;-54
2023/08/14 03:33:47;;;;;;;2.40;2.20;;;15.20;99.90;;;;;;4952304;28;21101;-50
2023/08/14 03:36:14;;;;;;;5.60;2.67;;;15.10;99.90;;;;;;4943084;28;20222;-56
2023/08/14 03:38:43;;;;;;;2.83;2.60;;;15.10;99.90;;;;;;4931145;28;20202;-54
2023/08/14 03:41:09;;;;;;;3.30;2.37;;;15.10;99.90;;;;;;4953219;28;20287;-56
2023/08/14 03:43:36;;;;;;;4.10;2.57;;;15.00;99.90;;;;;;4932736;28;20986;-56
2023/08/14 03:46:03;;;;;;;4.33;2.70;;;15.00;99.90;;;;;;4953022;28;20211;-55
2023/08/14 03:48:30;;;;;;;3.87;2.30;;;15.00;99.90;;;;;;4943853;28;20698;-55
2023/08/14 03:50:57;;;;;;;2.40;2.13;;;14.90;99.90;;;;;;4947744;28;20207;-54
2023/08/14 03:53:23;;;;;;;4.03;2.23;;;14.90;99.90;;;;;;4905807;29;20282;-51
2023/08/14 03:55:52;;;;;;;3.10;2.67;;;15.00;99.90;;;;;;4945527;29;20227;-56
2023/08/14 03:58:18;;;;;;;3.40;2.97;;;15.00;99.90;;;;;;4931344;28;20249;-54
2023/08/14 04:00:46;;;;;;;2.57;2.37;;;14.90;99.90;;;;;;4931966;28;20234;-52
2023/08/14 04:03:14;;;;;;;4.83;2.27;;;14.90;99.90;;;;;;4940978;28;20214;-57
2023/08/14 04:05:41;;;;;;;3.10;2.50;;;14.80;99.90;;;;;;4949587;28;20285;-51
2023/08/14 04:08:09;;;;;;;3.07;2.40;;;14.80;99.90;;;;;;4920544;28;20207;-54
2023/08/14 04:10:36;;;;;;;2.83;2.57;;;14.80;99.90;;;;;;4933891;29;20203;-52
2023/08/14 04:13:05;;;;;;;3.00;2.80;;;14.80;99.90;;;;;;4939748;28;20949;-54
2023/08/14 04:15:32;;;;;;;4.90;3.00;;;14.90;99.90;;;;;;4919728;28;20328;-55
2023/08/14 04:17:59;;;;;;;2.87;2.67;;;14.90;99.90;;;;;;4946356;28;20197;-55
2023/08/14 04:20:26;;;;;;;4.30;2.87;;;14.80;99.90;;;;;;4942394;28;20194;-53
2023/08/14 04:22:53;;;;;;;2.87;2.47;;;14.80;99.90;;;;;;4939426;28;20210;-56
2023/08/14 04:25:20;;;;;;;3.77;2.70;;;14.80;99.90;;;;;;4929211;28;20227;-53
2023/08/14 04:27:47;;;;;;;3.40;2.73;;;14.80;99.90;;;;;;4926172;29;20218;-54
2023/08/14 04:30:15;;;;;;;3.03;2.83;;;14.80;99.90;;;;;;4941885;28;20228;-48
2023/08/14 04:32:42;;;;;;;4.03;2.37;;;14.70;99.90;;;;;;4942731;28;20202;-52
2023/08/14 04:35:10;;;;;;;4.33;2.60;;;14.70;99.90;;;;;;4943529;28;20605;-54
2023/08/14 04:37:47;;;;;;;2.70;2.50;;;14.80;99.90;;;;;;4942387;28;20210;-55
2023/08/14 04:40:21;;;;;;;3.43;2.30;;;14.80;99.90;;;;;;4920163;28;20297;-52
2023/08/14 04:42:57;;;;;;;2.73;2.53;;;14.80;99.90;;;;;;4934723;28;20207;-55
2023/08/14 04:45:29;;;;;;;3.40;2.57;;;14.80;99.90;;;;;;4937849;28;21458;-51
2023/08/14 04:48:00;;;;;;;2.63;2.43;;;14.90;99.90;;;;;;4945190;28;20253;-52
2023/08/14 04:50:30;;;;;;;2.97;2.67;;;14.90;99.90;;;;;;4935054;28;21087;-53
2023/08/14 04:53:07;;;;;;;3.23;2.83;;;14.90;99.90;;;;;;4940508;28;20209;-55
2023/08/14 04:55:39;;;;;;;4.00;2.90;;;15.00;99.90;;;;;;4924315;28;20618;-54
2023/08/14 04:58:07;;;;;;;5.07;3.10;;;15.00;99.90;;;;;;4936046;28;20213;-56
2023/08/14 05:00:39;;;;;;;5.90;2.90;;;15.00;99.90;;;;;;4947777;28;20618;-56
2023/08/14 05:03:16;;;;;;;6.37;3.40;;;15.10;99.90;;;;;;4934972;28;20206;-55
2023/08/14 05:05:57;;;;;;;5.53;3.23;;;15.10;99.90;;;;;;4944102;28;20218;-55
2023/08/14 05:08:34;;;;;;;4.27;2.70;;;15.20;99.90;;;;;;4941115;28;20224;-51
2023/08/14 05:11:05;;;;;;;5.93;3.20;;;15.20;99.90;;;;;;4924702;28;20201;-56
2023/08/14 05:14:03;;;;;;;5.07;3.50;;;15.30;99.90;;;;;;4935332;28;20596;-55
2023/08/14 05:16:46;;;;;;;4.03;3.17;;;15.40;99.90;;;;;;4924430;28;20669;-56
2023/08/14 05:19:54;;;;;;;3.80;3.23;;;15.40;99.90;;;;;;4933801;28;20277;-54
2023/08/14 05:22:37;;;;;;;5.40;3.33;;;15.50;99.90;;;;;;4906603;28;20859;-54
2023/08/14 05:25:12;;;;;;;3.53;2.63;;;15.50;99.90;;;;;;4935348;28;21033;-56
2023/08/14 05:27:58;;;;;;;3.27;2.73;;;15.60;99.90;;;;;;4920509;28;20207;-54
2023/08/14 05:30:35;;;;;;;4.50;2.93;;;15.60;99.90;;;;;;4947294;28;20913;-49
2023/08/14 05:33:24;;;;;;;3.93;2.97;;;15.70;99.90;;;;;;4940945;28;20195;-56
2023/08/14 05:35:58;;;;;;;4.03;2.70;;;15.70;99.90;;;;;;4939309;28;20221;-50
2023/08/14 05:38:37;;;;;;;4.00;3.10;;;15.80;99.90;;;;;;4934406;28;20206;-50
2023/08/14 05:44:10;;;;;;;4.50;3.20;;;15.90;99.90;;;;;;4917225;28;20297;-54
2023/08/14 05:47:20;;;;;;;4.90;2.90;;;15.90;99.90;;;;;;4946766;28;20750;-55
2023/08/14 05:50:25;;;;;;;3.13;2.80;;;16.00;99.90;;;;;;4933817;28;20609;-53
2023/08/14 05:53:03;;;;;;;8.47;3.20;;;16.10;99.90;;;;;;4921188;28;20317;-53
2023/08/14 05:55:58;;;;;;;3.43;2.97;;;16.20;99.90;;;;;;4941368;28;20206;-48
2023/08/14 05:58:42;;;;;;;6.73;3.03;;;16.30;99.90;;;;;;4922796;28;20218;-54
2023/08/14 06:01:14;;;;;;;8.60;3.00;;;16.40;99.90;;;;;;4921841;28;20848;-53
2023/08/14 06:03:41;;;;;;;3.57;3.27;;;16.40;99.90;;;;;;4947863;28;20272;-53
2023/08/14 06:06:09;;;;;;;3.33;3.03;;;16.50;99.90;;;;;;4930302;28;20241;-54
2023/08/14 06:08:36;;;;;;;4.23;3.10;;;16.50;99.90;;;;;;4940138;28;20281;-50
2023/08/14 06:11:03;;;;;;;3.33;2.90;;;16.60;99.90;;;;;;4938217;28;20262;-54
2023/08/14 06:13:30;;;;;;;5.10;3.00;;;16.70;99.90;;;;;;4943189;28;20926;-53
2023/08/14 06:15:57;;;;;;;5.00;3.53;;;16.80;99.90;;;;;;4924750;29;20227;-51
2023/08/14 06:18:24;;;;;;;6.33;3.40;;;16.80;99.90;;;;;;4941380;28;20990;-52
2023/08/14 06:20:51;;;;;;;5.17;3.37;;;16.90;99.90;;;;;;4936652;28;20206;-53
2023/08/14 06:23:19;;;;;;;6.60;3.47;;;17.00;99.90;;;;;;4938498;28;20207;-54
2023/08/14 06:25:46;;;;;;;5.30;3.33;;;17.10;99.90;;;;;;4945226;28;20238;-52
2023/08/14 06:28:13;;;;;;;4.60;3.60;;;17.20;99.90;;;;;;4936992;28;20890;-52
2023/08/14 06:30:39;;;;;;;4.03;3.17;;;17.30;99.90;;;;;;4925805;28;20258;-54
2023/08/14 06:33:06;;;;;;;6.70;3.70;;;17.40;99.90;;;;;;4945648;28;20206;-54
2023/08/14 06:35:33;;;;;;;6.13;3.80;;;17.50;99.90;;;;;;4940300;28;20270;-50
2023/08/14 06:38:00;;;;;;;5.40;3.20;;;17.60;99.90;;;;;;4953256;28;20242;-52
2023/08/14 06:40:28;;;;;;;4.40;3.23;;;17.70;99.90;;;;;;4941536;28;20198;-48
2023/08/14 06:42:55;;;;;;;9.33;3.37;;;17.80;99.90;;;;;;4950515;28;20209;-50
2023/08/14 06:45:22;;;;;;;6.37;3.40;;;17.90;99.90;;;;;;4948173;28;20214;-54
2023/08/14 06:47:48;;;;;;;4.40;3.40;;;17.90;99.90;;;;;;4928658;28;20203;-50
2023/08/14 06:50:15;;;;;;;4.33;3.93;;;18.00;99.90;;;;;;4933031;28;20239;-48
2023/08/14 06:52:42;;;;;;;4.87;4.00;;;18.10;99.90;;;;;;4948314;28;20274;-51
2023/08/14 06:55:09;;;;;;;3.87;3.50;;;18.10;99.90;;;;;;4933582;28;21025;-50
2023/08/14 06:57:37;;;;;;;6.50;4.10;;;18.20;99.90;;;;;;4946172;29;20257;-55
2023/08/14 07:00:12;;;;;;;8.90;4.30;;;18.30;99.90;;;;;;4937572;29;20198;-53
2023/08/14 07:02:39;;;;;;;7.03;4.00;;;18.40;99.90;;;;;;4936635;28;20211;-52
2023/08/14 07:05:06;;;;;;;6.60;4.27;;;18.50;99.90;;;;;;4948986;28;20276;-51
2023/08/14 07:07:32;;;;;;;6.77;4.03;;;18.50;99.90;;;;;;4938744;28;20195;-55
2023/08/14 07:09:59;;;;;;;8.93;4.07;;;18.60;99.90;;;;;;4944160;28;20229;-52
2023/08/14 07:12:26;;;;;;;10.87;3.87;;;18.70;99.90;;;;;;4949415;28;20214;-52
2023/08/14 07:14:54;;;;;;;5.07;3.90;;;18.80;99.90;;;;;;4939166;28;20865;-54
2023/08/14 07:17:21;;;;;;;8.13;4.13;;;18.90;99.90;;;;;;4945134;28;20246;-52
2023/08/14 07:19:48;;;;;;;6.93;3.63;;;19.00;99.90;;;;;;4924941;28;20211;-50
2023/08/14 07:22:14;;;;;;;6.20;3.67;;;19.00;99.90;;;;;;4937797;28;20261;-47
2023/08/14 07:24:41;;;;;;;3.87;3.10;;;19.10;99.90;;;;;;4944295;28;20214;-53
2023/08/14 07:27:08;;;;;;;8.70;3.93;;;19.10;99.90;;;;;;4938285;28;20203;-53
2023/08/14 07:29:35;;;;;;;7.00;3.60;;;19.30;99.90;;;;;;4941278;29;20230;-48
2023/08/14 07:32:03;;;;;;;6.67;3.50;;;19.30;99.90;;;;;;4953186;28;20253;-52
2023/08/14 07:34:30;;;;;;;7.30;3.80;;;19.30;99.90;;;;;;4929914;28;20293;-50
2023/08/14 07:36:57;;;;;;;5.63;3.47;;;19.40;99.90;;;;;;4947678;28;20210;-54
2023/08/14 07:39:23;;;;;;;7.00;3.50;;;19.50;99.90;;;;;;4930922;28;20254;-54
2023/08/14 07:41:50;;;;;;;5.67;3.70;;;19.70;99.90;;;;;;4950117;28;20211;-48
2023/08/14 07:44:17;;;;;;;8.30;3.77;;;19.80;99.90;;;;;;4940609;28;20265;-48
2023/08/14 07:46:44;;;;;;;5.23;3.30;;;20.00;99.90;;;;;;4942625;28;20675;-50
2023/08/14 07:49:12;;;;;;;9.37;4.30;;;20.10;99.90;;;;;;4925469;28;21229;-51
2023/08/14 07:51:39;;;;;;;8.33;3.07;;;20.20;99.90;;;;;;4936046;28;20663;-49
2023/08/14 07:54:06;;;;;;;4.13;3.00;;;20.30;99.90;;;;;;4932209;28;20301;-54
2023/08/14 07:56:33;;;;;;;4.87;3.07;;;20.30;99.90;;;;;;4946198;28;20237;-49
2023/08/14 07:59:00;;;;;;;8.07;3.13;;;20.40;99.90;;;;;;4942172;28;20270;-53
2023/08/14 08:01:27;;;;;;;7.43;3.10;;;20.60;99.90;;;;;;4941453;28;20322;-49
2023/08/14 08:03:54;;;;;;;3.23;2.70;;;20.70;99.90;;;;;;4956198;28;20589;-53
2023/08/14 08:06:22;;;;;;;3.60;2.73;;;20.80;99.90;;;;;;4925453;28;20517;-54
2023/08/14 08:08:49;;;;;;;4.63;3.27;;;20.90;99.90;;;;;;4937763;28;20234;-46
2023/08/14 08:11:16;;;;;;;3.77;2.50;;;20.90;99.90;;;;;;4943005;28;20187;-47
2023/08/14 08:13:43;;;;;;;4.07;2.57;;;21.10;99.90;;;;;;4938892;28;20306;-48
2023/08/14 08:16:10;;;;;;;3.57;2.50;;;21.20;99.90;;;;;;4929769;28;20297;-50
2023/08/14 08:18:53;;;;;;;3.83;2.80;;;21.30;99.90;;;;;;4949042;28;20770;-47
2023/08/14 08:21:32;;;;;;;4.87;2.33;;;21.40;99.90;;;;;;4917243;28;20304;-48
2023/08/14 08:24:15;;;;;;;3.80;2.23;;;21.40;99.90;;;;;;4944724;28;20203;-52
2023/08/14 08:26:48;;;;;;;5.03;2.50;;;21.60;99.90;;;;;;4948026;28;20229;-46
2023/08/14 08:32:27;;;;;;;;;;;;;;;;;;;;;
2023/08/14 08:35:09;;;;;;;2.83;2.47;;;21.80;99.90;;;;;;4943157;28;20223;-51
2023/08/14 08:37:54;;;;;;;3.70;2.03;;;21.90;99.90;;;;;;4927823;28;20710;-49
2023/08/14 08:40:45;;;;;;;4.38;2.42;;;22.00;99.90;;;;;;4931509;28;20464;-51
2023/08/14 08:43:19;;;;;;;5.72;2.60;;;22.10;99.90;;;;;;4937531;28;20252;-50
2023/08/14 08:45:51;;;;;;;5.30;2.55;;;22.10;99.90;;;;;;4947977;28;20229;-50
2023/08/14 08:48:43;;;;;;;7.57;2.40;;;22.20;99.90;;;;;;4939124;28;20915;-47
2023/08/14 08:51:24;;;;;;;2.53;1.95;;;22.20;99.90;;;;;;4934404;28;20242;-51
2023/08/14 08:54:17;;;;;;;5.13;2.50;;;22.20;99.90;;;;;;4933163;28;20295;-51
2023/08/14 08:56:46;;;;;;;5.65;2.40;;;22.40;99.90;;;;;;4926746;28;20277;-53
2023/08/14 08:59:14;;;;;;;5.75;2.10;;;22.50;99.90;;;;;;4938262;28;20280;-49
2023/08/14 09:02:02;;;;;;;2.38;2.08;;;22.60;99.90;;;;;;4949263;28;20190;-48
2023/08/14 09:04:42;;;;;;;3.28;2.08;;;22.60;99.90;;;;;;4938855;28;20756;-45
2023/08/14 09:07:25;;;;;;;4.93;2.30;;;22.70;99.90;;;;;;4941215;28;20300;-50
2023/08/14 09:09:54;;;;;;;5.72;2.17;;;22.80;99.90;;;;;;4925626;28;20667;-52
2023/08/14 09:12:25;;;;;;;3.13;2.40;;;22.80;99.90;;;;;;4933055;28;20201;-51
2023/08/14 09:15:25;;;;;;;3.17;2.10;;;22.80;99.90;;;;;;4939405;28;20234;-48
2023/08/14 09:17:59;;;;;;;5.40;2.53;;;22.90;99.90;;;;;;4940148;28;20230;-52
2023/08/14 09:20:36;;;;;;;3.13;1.83;;;23.00;99.90;;;;;;4934443;28;20774;-52
2023/08/14 09:23:15;;;;;;;4.70;2.17;;;23.00;99.90;;;;;;4947575;28;20674;-53
2023/08/14 09:25:45;;;;;;;3.47;2.55;;;23.10;99.90;;;;;;4919361;28;20952;-54
2023/08/14 09:28:17;;;;;;;5.03;2.00;;;23.10;99.90;;;;;;4931356;28;20260;-50
2023/08/14 09:30:54;;;;;;;2.20;2.00;;;23.20;99.90;;;;;;4940988;28;20201;-52
2023/08/14 09:33:37;;;;;;;6.68;2.10;;;23.20;99.90;;;;;;4941903;28;20893;-47
2023/08/14 09:36:08;;;;;;;3.70;2.13;;;23.30;99.90;;;;;;4934882;28;20579;-51
2023/08/14 09:38:42;;;;;;;6.60;2.92;;;23.40;99.90;;;;;;4945906;28;20226;-52
2023/08/14 09:41:17;;;;;;;5.78;2.53;;;23.40;99.90;;;;;;4910153;28;20206;-53
2023/08/14 09:43:54;;;;;;;4.00;2.70;;;23.50;99.90;;;;;;4946184;28;20280;-55
2023/08/14 09:46:31;;;;;;;6.57;2.78;;;23.50;99.90;;;;;;4938255;28;20742;-51
2023/08/14 09:49:04;;;;;;;4.78;2.08;;;23.60;99.90;;;;;;4941763;28;20320;-55
2023/08/14 09:51:50;;;;;;;3.95;2.15;;;23.60;99.90;;;;;;4948970;28;20230;-51
2023/08/14 09:54:18;;;;;;;6.75;1.90;;;23.60;99.90;;;;;;4937665;28;20329;-54
2023/08/14 09:56:48;;;;;;;4.50;2.17;;;23.60;99.90;;;;;;4923130;28;20684;-50
2023/08/14 09:59:14;;;;;;;3.13;2.20;;;23.70;99.90;;;;;;4930661;28;20376;-51
2023/08/14 10:01:41;;;;;;;4.65;2.15;;;23.70;99.90;;;;;;4948014;28;20202;-53
2023/08/14 10:04:08;;;;;;;5.40;2.08;;;23.80;99.90;;;;;;4935437;28;20206;-51
2023/08/14 10:06:36;;;;;;;4.05;2.50;;;23.90;99.90;;;;;;4945625;28;20202;-53
2023/08/14 10:09:04;;;;;;;5.07;2.28;;;23.90;99.90;;;;;;4944835;28;20203;-53
2023/08/14 10:11:34;;;;;;;4.43;2.05;;;24.00;99.90;;;;;;4929409;28;20692;-49
2023/08/14 10:14:05;;;;;;;4.68;2.28;;;24.00;99.90;;;;;;4937786;28;20203;-54
2023/08/14 10:16:39;;;;;;;3.38;2.17;;;24.00;99.90;;;;;;4949621;28;20217;-50
2023/08/14 10:19:10;;;;;;;3.17;2.40;;;24.00;99.90;;;;;;4940602;28;20218;-50
2023/08/14 10:21:40;;;;;;;5.47;2.00;;;24.00;99.90;;;;;;4941375;28;20266;-48
2023/08/14 10:24:08;;;;;;;5.05;2.25;;;24.00;99.90;;;;;;4943423;28;20265;-52
2023/08/14 10:26:35;;;;;;;3.17;1.95;;;24.00;99.90;;;;;;4925497;28;20296;-51
2023/08/14 10:29:04;;;;;;;3.50;2.03;;;24.00;99.90;;;;;;4937558;28;20213;-51
2023/08/14 10:31:32;;;;;;;2.63;2.13;;;24.10;99.90;;;;;;4948383;28;20605;-49
2023/08/14 10:33:59;;;;;;;3.53;2.00;;;24.10;99.90;;;;;;4936621;28;20314;-54
2023/08/14 10:36:28;;;;;;;2.42;1.80;;;24.10;99.90;;;;;;4946139;28;20806;-52
2023/08/14 10:38:55;;;;;;;2.83;1.88;;;24.30;99.90;;;;;;4936080;28;20226;-49
2023/08/14 10:41:22;;;;;;;4.65;1.85;;;;;;;;;;4930711;28;20198;-54
2023/08/14 10:43:50;;;;;;;4.03;2.30;;;24.00;99.90;;;;;;4950382;28;20215;-53
2023/08/14 10:46:18;;;;;;;4.18;2.08;;;24.70;99.90;;;;;;4937876;28;20798;-53
2023/08/14 10:48:49;;;;;;;3.67;2.17;;;24.80;99.90;;;;;;4939121;28;20202;-52
2023/08/14 10:51:21;;;;;;;4.38;2.20;;;24.80;99.90;;;;;;4944093;28;20257;-51
2023/08/14 10:53:48;;;;;;;2.78;2.13;;;24.70;99.90;;;;;;4944859;28;20258;-54
2023/08/14 10:56:15;;;;;;;2.53;2.30;;;24.70;99.90;;;;;;4944990;28;20226;-50
2023/08/14 10:58:48;;;;;;;5.45;2.67;;;24.80;99.90;;;;;;4924340;28;20223;-56
2023/08/14 11:01:15;;;;;;;4.47;2.03;;;24.90;99.90;;;;;;4934457;28;20199;-53
2023/08/14 11:04:03;;;;;;;3.92;2.05;;;25.00;99.90;;;;;;4943608;28;20213;-58
2023/08/14 11:06:49;;;;;;;3.88;2.13;;;24.90;99.90;;;;;;4943115;28;20225;-53
2023/08/14 11:09:16;;;;;;;4.88;1.67;;;24.90;99.90;;;;;;4939924;28;20190;-51
2023/08/14 11:11:48;;;;;;;2.63;1.85;;;24.80;99.90;;;;;;4940046;28;20214;-53
2023/08/14 11:14:15;;;;;;;2.80;2.35;;;24.80;99.90;;;;;;4918692;28;20358;-55
2023/08/14 11:16:42;;;;;;;3.63;2.13;;;24.70;99.90;;;;;;4934742;28;20191;-54
2023/08/14 11:19:12;;;;;;;4.18;1.83;;;24.70;99.90;;;;;;4936643;28;20644;-56
2023/08/14 11:21:38;;;;;;;3.15;1.77;;;24.70;99.90;;;;;;4947108;28;20214;-50
2023/08/14 11:24:11;;;;;;;3.60;2.00;;;24.70;99.90;;;;;;4944868;28;20214;-55
2023/08/14 11:26:37;;;;;;;4.20;2.13;;;24.70;99.90;;;;;;4944373;28;20214;-53
2023/08/14 11:29:04;;;;;;;4.47;2.80;;;24.80;99.90;;;;;;4927703;28;20670;-54
2023/08/14 11:31:31;;;;;;;4.25;1.55;;;24.90;99.90;;;;;;4934727;28;20198;-50
2023/08/14 11:33:58;;;;;;;4.88;2.17;;;25.00;99.90;;;;;;4943829;28;20206;-52
2023/08/14 11:36:26;;;;;;;4.40;2.05;;;25.20;99.90;;;;;;4941945;28;20900;-53
2023/08/14 11:38:53;;;;;;;4.55;1.95;;;25.40;99.90;;;;;;4937983;28;20254;-51
2023/08/14 11:41:20;;;;;;;3.63;2.30;;;25.50;99.90;;;;;;4937045;28;20235;-52
2023/08/14 11:43:47;;;;;;;2.97;2.30;;;25.60;99.90;;;;;;4928223;28;20218;-48
2023/08/14 11:46:14;;;;;;;2.65;2.15;;;25.60;99.90;;;;;;4936137;28;20248;-53
2023/08/14 11:48:40;;;;;;;2.25;1.80;;;25.60;99.90;;;;;;4937417;28;20202;-51
2023/08/14 11:51:08;;;;;;;2.72;2.03;;;25.50;99.90;;;;;;4945305;28;20206;-55
2023/08/14 11:53:37;;;;;;;3.10;1.98;;;25.60;99.90;;;;;;4936162;28;20941;-57
2023/08/14 11:56:04;;;;;;;2.28;1.75;;;25.60;99.90;;;;;;4946909;28;20695;-50
2023/08/14 11:58:31;;;;;;;4.03;1.95;;;25.50;99.90;;;;;;4941714;28;20723;-57
2023/08/14 12:00:58;;;;;;;2.95;1.92;;;25.50;99.90;;;;;;4924584;28;20224;-57
2023/08/14 12:03:26;;;;;;;3.45;2.22;;;25.60;99.90;;;;;;4933342;28;20358;-56
2023/08/14 12:06:01;;;;;;;3.92;1.77;;;25.60;99.90;;;;;;4942483;28;20223;-55
2023/08/14 12:08:29;;;;;;;3.83;2.08;;;;;;;;;;4941040;28;20198;-56
2023/08/14 12:10:57;;;;;;;2.17;1.98;;;;;;;;;;4945495;28;20209;-52
2023/08/14 12:13:25;;;;;;;3.28;1.73;;;26.10;99.90;;;;;;4943110;28;20195;-57
2023/08/14 12:15:52;;;;;;;3.08;2.10;;;26.10;99.90;;;;;;4930824;28;20868;-52
2023/08/14 12:18:22;;;;;;;5.15;2.40;;;26.20;99.90;;;;;;4937146;28;20878;-50
2023/08/14 12:20:52;;;;;;;2.72;2.13;;;26.20;99.90;;;;;;4933170;28;20210;-50
2023/08/14 12:23:23;;;;;;;8.30;2.40;;;26.20;99.90;;;;;;4941930;28;20787;-50
2023/08/14 12:25:50;;;;;;;5.78;2.17;;;;;;;;;;4944376;28;20227;-52
2023/08/14 12:28:21;;;;;;;2.95;1.90;;;;;;;;;;4948558;28;20217;-55
2023/08/14 12:30:50;;;;;;;3.08;1.90;;;;;;;;;;4920785;28;20207;-54
2023/08/14 12:33:20;;;;;;;3.40;2.22;;;;;;;;;;4939302;28;20254;-51
2023/08/14 12:35:47;;;;;;;3.60;2.05;;;26.40;99.90;;;;;;4941888;28;20223;-50
2023/08/14 12:38:13;;;;;;;4.57;2.20;;;26.40;99.90;;;;;;4937597;28;20230;-54
2023/08/14 12:40:41;;;;;;;4.57;2.40;;;;;;;;;;4941196;28;20265;-48
2023/08/14 12:43:10;;;;;;;4.82;2.08;;;26.50;99.90;;;;;;4942973;28;20206;-59
2023/08/14 12:45:40;;;;;;;5.50;2.50;;;26.50;99.90;;;;;;4929137;28;20779;-49
2023/08/14 12:48:08;;;;;;;2.17;1.98;;;26.60;99.90;;;;;;4961252;28;20261;-57
2023/08/14 12:50:39;;;;;;;3.95;2.63;;;26.70;99.90;;;;;;4947080;28;20214;-47
2023/08/14 12:53:12;;;;;;;3.55;2.42;;;26.30;99.90;;;;;;4930461;28;20274;-53
2023/08/14 12:55:40;;;;;;;3.47;2.50;;;26.10;99.90;;;;;;4962119;28;20226;-49
2023/08/14 12:58:10;;;;;;;4.82;2.47;;;26.00;99.90;;;;;;4971549;28;20206;-54
2023/08/14 13:00:40;;;;;;;3.05;1.85;;;25.70;99.90;;;;;;4970543;28;20586;-48
2023/08/14 13:03:09;;;;;;;7.35;3.13;;;24.60;99.90;;;;;;4950515;28;20209;-54
2023/08/14 13:05:36;;;;;;;3.30;2.38;;;26.50;99.90;;;;;;4933476;29;20223;-51
2023/08/14 13:08:04;;;;;;;5.07;3.08;;;26.80;99.90;;;;;;4957847;28;20194;-58
2023/08/14 13:10:31;;;;;;;2.55;2.20;;;26.30;99.90;;;;;;4961313;28;20281;-48
2023/08/14 13:12:58;;;;;;;3.40;2.63;;;26.20;99.90;;;;;;4957151;28;20203;-58